createdAt,value
2022-11-13T00:00:35.337Z,100296.66
2022-11-13T00:01:56.409Z,100291.47
2022-11-13T00:03:16.983Z,100287.16
2022-11-13T00:04:37.532Z,100288.88
2022-11-13T00:05:59.958Z,100290.56
2022-11-13T00:07:20.953Z,100290.53
2022-11-13T00:08:41.700Z,100281.03
2022-11-13T00:10:02.288Z,100282.75
2022-11-13T00:11:23.017Z,100287.13
2022-11-13T00:12:43.709Z,100285.38
2022-11-13T00:14:05.098Z,100282.81
2022-11-13T00:15:25.960Z,100287.16
2022-11-13T00:16:46.796Z,100279.31
2022-11-13T00:18:07.397Z,100288.00
2022-11-13T00:19:27.977Z,100287.16
2022-11-13T00:20:48.730Z,100280.22
2022-11-13T00:22:09.785Z,100294.97
2022-11-13T00:23:34.599Z,100286.28
2022-11-13T00:24:55.242Z,100268.97
2022-11-13T00:26:18.360Z,100283.69
2022-11-13T00:27:38.931Z,100285.41
2022-11-13T00:29:01.991Z,100291.50
2022-11-13T00:30:22.534Z,100296.72
2022-11-13T00:31:43.096Z,100291.50
2022-11-13T00:33:03.674Z,100290.63
2022-11-13T00:34:46.321Z,100271.59
2022-11-13T00:36:14.893Z,100278.50
2022-11-13T00:37:35.625Z,100266.41
2022-11-13T00:38:56.549Z,100268.13
2022-11-13T00:40:17.276Z,100259.44
2022-11-13T00:41:37.843Z,100262.91
2022-11-13T00:42:58.647Z,100260.31
2022-11-13T00:44:19.364Z,100253.41
2022-11-13T00:45:40.123Z,100264.63
2022-11-13T00:47:00.988Z,100256.84
2022-11-13T00:48:21.609Z,100258.56
2022-11-13T00:49:42.234Z,100258.59
2022-11-13T00:51:03.739Z,100265.50
2022-11-13T00:52:24.636Z,100261.19
2022-11-13T00:53:45.242Z,100257.72
2022-11-13T00:55:06.326Z,100263.81
2022-11-13T00:56:27.171Z,100269.00
2022-11-13T00:57:48.029Z,100255.13
2022-11-13T00:59:09.020Z,100253.41
2022-11-13T01:00:29.665Z,100254.25
2022-11-13T01:01:50.531Z,100255.13
2022-11-13T01:03:12.161Z,100242.16
2022-11-13T01:04:32.706Z,100250.78
2022-11-13T01:05:53.729Z,100246.47
2022-11-13T01:07:14.311Z,100250.78
2022-11-13T01:08:34.958Z,100250.81
2022-11-13T01:09:55.644Z,100244.75
2022-11-13T01:11:22.029Z,100242.16
2022-11-13T01:12:43.314Z,100247.31
2022-11-13T01:14:04.344Z,100236.94
2022-11-13T01:15:25.248Z,100236.94
2022-11-13T01:16:46.031Z,100237.78
2022-11-13T01:18:06.908Z,100232.59
2022-11-13T01:19:27.940Z,100239.56
2022-11-13T01:20:48.666Z,100237.81
2022-11-13T01:22:09.637Z,100235.22
2022-11-13T01:23:30.212Z,100235.22
2022-11-13T01:24:51.422Z,100224.81
2022-11-13T01:26:16.867Z,100226.56
2022-11-13T01:27:38.132Z,100218.75
2022-11-13T01:28:59.917Z,100221.38
2022-11-13T01:30:20.749Z,100212.69
2022-11-13T01:31:41.361Z,100210.91
2022-11-13T01:33:02.328Z,100222.19
2022-11-13T01:34:23.029Z,100212.66
2022-11-13T01:35:43.979Z,100223.06
2022-11-13T01:37:04.606Z,100210.09
2022-11-13T01:38:25.455Z,100218.75
2022-11-13T01:39:46.443Z,100211.84
2022-11-13T01:41:10.993Z,100216.16
2022-11-13T01:42:34.532Z,100215.25
2022-11-13T01:43:56.876Z,100201.44
2022-11-13T01:45:51.767Z,100208.34
2022-11-13T01:47:12.619Z,100210.97
2022-11-13T01:48:40.224Z,100213.56
2022-11-13T01:50:02.268Z,100209.22
2022-11-13T01:51:29.633Z,100207.50
2022-11-13T01:52:50.642Z,100204.03
2022-11-13T01:54:17.276Z,100204.00
2022-11-13T01:55:37.962Z,100210.09
2022-11-13T01:56:59.883Z,100202.31
2022-11-13T01:58:21.137Z,100204.06
2022-11-13T01:59:47.101Z,100192.81
2022-11-13T02:01:42.050Z,100197.97
2022-11-13T02:03:03.445Z,100203.16
2022-11-13T02:04:25.472Z,100189.34
2022-11-13T02:05:46.201Z,100191.06
2022-11-13T02:07:10.106Z,100187.59
2022-11-13T02:08:30.911Z,100192.81
2022-11-13T02:09:55.341Z,100187.63
2022-11-13T02:11:16.841Z,100185.00
2022-11-13T02:12:42.000Z,100168.56
2022-11-13T02:14:03.955Z,100170.28
2022-11-13T02:15:28.895Z,100178.94
2022-11-13T02:16:54.323Z,100182.38
2022-11-13T02:18:16.868Z,100178.94
2022-11-13T02:19:42.975Z,100176.34
2022-11-13T02:21:43.409Z,100165.97
2022-11-13T02:23:22.518Z,100175.47
2022-11-13T02:24:47.896Z,100170.28
2022-11-13T02:26:11.867Z,100174.63
2022-11-13T02:27:44.208Z,100171.16
2022-11-13T02:29:04.785Z,100170.28
2022-11-13T02:30:29.068Z,100178.97
2022-11-13T02:31:50.040Z,100182.41
2022-11-13T02:33:22.560Z,100186.72
2022-11-13T02:34:43.170Z,100181.53
2022-11-13T02:36:05.774Z,100168.59
2022-11-13T02:37:26.638Z,100159.03
2022-11-13T02:38:48.086Z,100173.75
2022-11-13T02:40:09.948Z,100176.34
2022-11-13T02:41:30.786Z,100175.47
2022-11-13T02:42:51.330Z,100172.88
2022-11-13T02:44:12.179Z,100162.50
2022-11-13T02:45:33.228Z,100165.97
2022-11-13T02:46:54.123Z,100157.28
2022-11-13T02:48:14.802Z,100171.13
2022-11-13T02:49:35.473Z,100167.72
2022-11-13T02:50:56.080Z,100168.56
2022-11-13T02:52:16.854Z,100160.78
2022-11-13T02:53:37.533Z,100165.94
2022-11-13T02:54:58.599Z,100169.44
2022-11-13T02:56:19.236Z,100163.34
2022-11-13T02:57:40.330Z,100163.38
2022-11-13T02:59:00.830Z,100152.13
2022-11-13T03:00:21.672Z,100157.31
2022-11-13T03:01:42.445Z,100164.22
2022-11-13T03:03:03.277Z,100156.41
2022-11-13T03:04:24.081Z,100150.34
2022-11-13T03:05:49.766Z,100144.31
2022-11-13T03:07:10.915Z,100153.81
2022-11-13T03:08:32.587Z,100143.44
2022-11-13T03:09:53.928Z,100141.72
2022-11-13T03:11:14.334Z,100137.38
2022-11-13T03:12:35.524Z,100133.94
2022-11-13T03:13:56.598Z,100135.63
2022-11-13T03:15:17.277Z,100139.09
2022-11-13T03:16:38.423Z,100132.19
2022-11-13T03:18:05.980Z,100133.03
2022-11-13T03:19:27.483Z,100130.44
2022-11-13T03:20:53.786Z,100133.03
2022-11-13T03:22:14.527Z,100135.63
2022-11-13T03:23:35.270Z,100133.03
2022-11-13T03:24:55.979Z,100126.97
2022-11-13T03:26:17.671Z,100135.63
2022-11-13T03:27:38.242Z,100128.69
2022-11-13T03:28:58.806Z,100134.72
2022-11-13T03:30:19.868Z,100139.94
2022-11-13T03:31:40.838Z,100142.53
2022-11-13T03:33:01.373Z,100127.84
2022-11-13T03:34:22.204Z,100141.72
2022-11-13T03:35:46.711Z,100136.53
2022-11-13T03:37:07.892Z,100139.09
2022-11-13T03:38:28.939Z,100138.25
2022-11-13T03:39:49.832Z,100129.56
2022-11-13T03:41:10.499Z,100132.16
2022-11-13T03:42:31.473Z,100131.28
2022-11-13T03:43:52.418Z,100126.06
2022-11-13T03:45:13.110Z,100116.53
2022-11-13T03:46:33.752Z,100123.44
2022-11-13T03:47:54.595Z,100116.56
2022-11-13T03:49:15.307Z,100129.56
2022-11-13T03:50:35.976Z,100132.13
2022-11-13T03:51:56.568Z,100130.47
2022-11-13T03:53:17.258Z,100137.41
2022-11-13T03:54:38.105Z,100121.75
2022-11-13T03:55:59.019Z,100121.75
2022-11-13T03:57:19.990Z,100117.41
2022-11-13T03:58:40.819Z,100118.25
2022-11-13T04:00:07.238Z,100118.31
2022-11-13T04:01:27.826Z,100110.53
2022-11-13T04:02:48.450Z,100119.16
2022-11-13T04:04:09.197Z,100107.88
2022-11-13T04:05:29.929Z,100106.13
2022-11-13T04:06:50.613Z,100107.84
2022-11-13T04:08:11.368Z,100100.00
2022-11-13T04:09:32.047Z,100103.44
2022-11-13T04:10:52.657Z,100113.88
2022-11-13T04:12:13.553Z,100110.44
2022-11-13T04:13:34.470Z,100111.34
2022-11-13T04:14:55.051Z,100110.44
2022-11-13T04:16:15.921Z,100106.13
2022-11-13T04:17:40.242Z,100111.31
2022-11-13T04:19:00.927Z,100108.69
2022-11-13T04:20:21.805Z,100107.84
2022-11-13T04:21:42.542Z,100100.09
2022-11-13T04:23:07.767Z,100102.72
2022-11-13T04:24:28.265Z,100102.69
2022-11-13T04:25:49.031Z,100099.22
2022-11-13T04:27:09.942Z,100100.09
2022-11-13T04:28:30.828Z,100097.50
2022-11-13T04:29:51.663Z,100101.81
2022-11-13T04:31:12.232Z,100103.53
2022-11-13T04:32:33.415Z,100095.75
2022-11-13T04:33:54.192Z,100100.97
2022-11-13T04:35:15.099Z,100096.66
2022-11-13T04:36:35.978Z,100103.50
2022-11-13T04:37:56.851Z,100093.91
2022-11-13T04:39:17.479Z,100091.31
2022-11-13T04:40:39.462Z,100095.69
2022-11-13T04:42:19.333Z,100100.97
2022-11-13T04:43:40.164Z,100092.31
2022-11-13T04:45:00.650Z,100094.06
2022-11-13T04:46:21.366Z,100097.50
2022-11-13T04:47:42.332Z,100101.81
2022-11-13T04:49:02.883Z,100100.16
2022-11-13T04:50:23.832Z,100100.16
2022-11-13T04:51:44.652Z,100104.47
2022-11-13T04:53:05.469Z,100101.84
2022-11-13T04:54:28.898Z,100100.97
2022-11-13T04:55:52.582Z,100101.88
2022-11-13T04:57:13.060Z,100097.53
2022-11-13T04:58:33.696Z,100105.31
2022-11-13T04:59:54.358Z,100105.28
2022-11-13T05:01:15.403Z,100100.13
2022-11-13T05:02:36.116Z,100102.75
2022-11-13T05:03:56.874Z,100099.28
2022-11-13T05:05:17.543Z,100094.09
2022-11-13T05:06:38.216Z,100079.38
2022-11-13T05:07:58.867Z,100088.03
2022-11-13T05:09:19.583Z,100094.97
2022-11-13T05:10:40.220Z,100089.75
2022-11-13T05:12:00.852Z,100094.97
2022-11-13T05:13:21.765Z,100088.06
2022-11-13T05:14:42.776Z,100089.78
2022-11-13T05:16:05.907Z,100092.38
2022-11-13T05:17:26.923Z,100087.09
2022-11-13T05:18:47.780Z,100081.88
2022-11-13T05:20:08.910Z,100079.31
2022-11-13T05:21:29.822Z,100079.34
2022-11-13T05:22:50.507Z,100078.47
2022-11-13T05:24:11.863Z,100082.81
2022-11-13T05:25:32.826Z,100071.56
2022-11-13T05:26:53.374Z,100071.50
2022-11-13T05:28:14.089Z,100068.91
2022-11-13T05:29:34.718Z,100065.47
2022-11-13T05:31:07.980Z,100054.25
2022-11-13T05:32:28.705Z,100058.56
2022-11-13T05:33:49.558Z,100058.59
2022-11-13T05:35:10.495Z,100041.22
2022-11-13T05:36:31.540Z,100047.31
2022-11-13T05:37:52.478Z,100043.94
2022-11-13T05:39:13.035Z,100048.28
2022-11-13T05:40:33.812Z,100040.47
2022-11-13T05:41:54.493Z,100045.69
2022-11-13T05:43:15.492Z,100045.69
2022-11-13T05:44:36.466Z,100039.66
2022-11-13T05:46:21.673Z,100028.34
2022-11-13T05:47:42.533Z,100034.44
2022-11-13T05:49:03.614Z,100039.63
2022-11-13T05:50:24.545Z,100030.09
2022-11-13T05:51:45.457Z,100035.28
2022-11-13T05:53:06.067Z,100036.16
2022-11-13T05:54:26.791Z,100032.69
2022-11-13T05:55:47.331Z,100033.56
2022-11-13T05:57:07.866Z,100029.22
2022-11-13T05:58:29.418Z,100040.50
2022-11-13T05:59:50.210Z,100039.63
2022-11-13T06:01:22.118Z,100034.44
2022-11-13T06:02:42.739Z,100041.38
2022-11-13T06:04:05.198Z,100032.75
2022-11-13T06:05:25.731Z,100028.41
2022-11-13T06:06:46.746Z,100021.50
2022-11-13T06:08:07.341Z,100028.38
2022-11-13T06:09:28.117Z,100023.22
2022-11-13T06:10:48.756Z,100024.09
2022-11-13T06:12:09.370Z,100034.47
2022-11-13T06:13:30.844Z,100027.59
2022-11-13T06:14:51.694Z,100023.25
2022-11-13T06:16:14.758Z,100025.84
2022-11-13T06:17:35.904Z,100018.91
2022-11-13T06:18:59.624Z,100018.06
2022-11-13T06:20:20.073Z,100018.91
2022-11-13T06:21:41.615Z,100020.66
2022-11-13T06:23:02.897Z,100016.31
2022-11-13T06:24:23.917Z,100016.34
2022-11-13T06:25:44.425Z,100021.53
2022-11-13T06:27:05.074Z,100019.75
2022-11-13T06:28:26.126Z,100012.88
2022-11-13T06:29:47.106Z,100015.44
2022-11-13T06:31:10.480Z,100005.91
2022-11-13T06:32:31.219Z,100011.06
2022-11-13T06:33:52.040Z,99999.84
2022-11-13T06:35:12.877Z,100012.81
2022-11-13T06:36:36.683Z,100021.50
2022-11-13T06:37:57.339Z,100018.91
2022-11-13T06:39:17.831Z,100018.06
2022-11-13T06:40:39.414Z,100014.59
2022-11-13T06:42:00.005Z,100014.56
2022-11-13T06:43:20.894Z,100008.53
2022-11-13T06:44:41.579Z,100006.78
2022-11-13T06:46:11.436Z,100005.03
2022-11-13T06:47:32.196Z,100011.94
2022-11-13T06:48:55.561Z,100011.91
2022-11-13T06:50:16.242Z,100011.06
2022-11-13T06:51:37.481Z,100008.47
2022-11-13T06:52:58.212Z,100009.34
2022-11-13T06:54:18.927Z,100002.47
2022-11-13T06:55:50.350Z,100005.91
2022-11-13T06:57:11.277Z,100008.50
2022-11-13T06:58:33.129Z,100011.13
2022-11-13T06:59:53.657Z,100010.25
2022-11-13T07:01:20.053Z,100007.66
2022-11-13T07:02:41.186Z,100005.94
2022-11-13T07:04:02.089Z,100004.19
2022-11-13T07:05:22.941Z,100010.25
2022-11-13T07:06:43.955Z,100004.19
2022-11-13T07:08:05.279Z,100012.88
2022-11-13T07:09:26.008Z,100007.66
2022-11-13T07:10:54.817Z,100005.09
2022-11-13T07:12:15.423Z,100005.06
2022-11-13T07:13:37.550Z,100011.97
2022-11-13T07:14:58.592Z,100004.19
2022-11-13T07:16:19.277Z,100004.19
2022-11-13T07:17:40.093Z,100010.25
2022-11-13T07:19:00.894Z,100001.59
2022-11-13T07:20:21.728Z,100002.47
2022-11-13T07:21:42.475Z,99999.91
2022-11-13T07:23:04.858Z,99998.19
2022-11-13T07:24:25.814Z,99997.31
2022-11-13T07:25:46.614Z,99996.44
2022-11-13T07:27:07.490Z,99996.44
2022-11-13T07:28:28.444Z,99987.81
2022-11-13T07:29:49.304Z,99992.97
2022-11-13T07:31:12.265Z,99991.25
2022-11-13T07:32:36.584Z,99995.56
2022-11-13T07:33:57.358Z,99990.38
2022-11-13T07:35:18.409Z,99987.78
2022-11-13T07:36:39.213Z,99992.06
2022-11-13T07:37:59.904Z,99997.22
2022-11-13T07:39:20.642Z,99991.16
2022-11-13T07:40:41.400Z,99985.09
2022-11-13T07:42:01.988Z,99991.13
2022-11-13T07:43:22.528Z,99997.16
2022-11-13T07:44:58.620Z,99998.97
2022-11-13T07:46:19.847Z,99998.97
2022-11-13T07:47:40.498Z,99998.97
2022-11-13T07:49:01.173Z,99997.25
2022-11-13T07:50:22.153Z,100005.94
2022-11-13T07:51:42.757Z,100003.31
2022-11-13T07:53:06.394Z,100000.78
2022-11-13T07:54:27.442Z,100002.50
2022-11-13T07:55:48.450Z,100002.50
2022-11-13T07:57:09.399Z,99989.53
2022-11-13T07:58:31.175Z,99993.84
2022-11-13T07:59:52.414Z,99997.25
2022-11-13T08:01:13.078Z,99991.25
2022-11-13T08:02:33.797Z,99997.31
2022-11-13T08:03:54.354Z,100012.88
2022-11-13T08:05:15.965Z,99994.72
2022-11-13T08:06:38.092Z,99999.88
2022-11-13T08:07:58.708Z,99992.09
2022-11-13T08:09:19.540Z,99994.72
2022-11-13T08:10:40.976Z,99990.38
2022-11-13T08:12:01.867Z,99975.59
2022-11-13T08:13:23.046Z,99989.41
2022-11-13T08:14:43.763Z,99983.38
2022-11-13T08:16:05.749Z,99980.75
2022-11-13T08:17:26.360Z,99990.25
2022-11-13T08:18:47.057Z,99994.56
2022-11-13T08:20:08.960Z,99988.47
2022-11-13T08:21:29.932Z,99990.19
2022-11-13T08:22:51.449Z,99984.16
2022-11-13T08:24:12.266Z,99983.19
2022-11-13T08:25:33.670Z,99985.66
2022-11-13T08:26:54.677Z,99977.59
2022-11-13T08:28:15.457Z,99984.97
2022-11-13T08:29:37.231Z,99987.25
2022-11-13T08:30:57.762Z,99987.78
2022-11-13T08:32:19.681Z,99987.06
2022-11-13T08:33:41.884Z,99996.59
2022-11-13T08:35:02.934Z,99989.69
2022-11-13T08:36:23.682Z,100004.56
2022-11-13T08:37:44.351Z,100004.47
2022-11-13T08:39:04.956Z,99997.56
2022-11-13T08:40:25.609Z,100003.69
2022-11-13T08:41:46.310Z,100000.19
2022-11-13T08:43:07.161Z,100000.22
2022-11-13T08:44:27.819Z,99993.28
2022-11-13T08:45:48.569Z,99999.38
2022-11-13T08:47:09.819Z,99995.91
2022-11-13T08:48:31.081Z,100007.13
2022-11-13T08:49:52.248Z,99998.41
2022-11-13T08:51:12.957Z,100001.91
2022-11-13T08:52:33.687Z,100001.94
2022-11-13T08:53:54.617Z,100008.09
2022-11-13T08:55:15.274Z,99997.59
2022-11-13T08:56:35.926Z,99995.66
2022-11-13T08:58:01.298Z,99993.13
2022-11-13T08:59:23.567Z,99996.75
2022-11-13T09:00:44.480Z,99988.09
2022-11-13T09:02:05.679Z,99985.38
2022-11-13T09:03:26.468Z,99996.84
2022-11-13T09:04:47.249Z,99995.97
2022-11-13T09:06:09.211Z,99987.19
2022-11-13T09:07:30.224Z,99983.78
2022-11-13T09:08:50.913Z,99982.72
2022-11-13T09:10:11.648Z,99969.47
2022-11-13T09:11:33.152Z,99973.09
2022-11-13T09:13:01.937Z,99967.03
2022-11-13T09:14:25.049Z,99963.72
2022-11-13T09:15:45.641Z,99951.41
2022-11-13T09:17:06.268Z,99959.91
2022-11-13T09:18:27.914Z,99967.44
2022-11-13T09:19:49.060Z,99970.78
2022-11-13T09:21:11.005Z,99965.56
2022-11-13T09:22:31.822Z,99953.31
2022-11-13T09:23:52.522Z,99960.66
2022-11-13T09:25:13.063Z,99966.66
2022-11-13T09:26:35.751Z,99970.47
2022-11-13T09:27:57.650Z,99983.13
2022-11-13T09:29:18.488Z,99983.41
2022-11-13T09:30:40.124Z,99981.25
2022-11-13T09:32:00.753Z,99967.97
2022-11-13T09:33:21.460Z,99969.00
2022-11-13T09:34:42.188Z,99966.16
2022-11-13T09:36:03.167Z,99968.44
2022-11-13T09:37:23.757Z,99972.69
2022-11-13T09:38:44.416Z,99970.00
2022-11-13T09:40:05.832Z,99975.25
2022-11-13T09:41:31.472Z,99984.88
2022-11-13T09:42:52.330Z,99991.22
2022-11-13T09:44:19.059Z,99995.03
2022-11-13T09:45:41.501Z,99991.28
2022-11-13T09:47:39.599Z,99994.34
2022-11-13T09:49:06.695Z,99999.44
2022-11-13T09:50:30.910Z,99995.47
2022-11-13T09:51:54.212Z,99989.78
2022-11-13T09:53:15.828Z,99997.63
2022-11-13T09:54:37.680Z,99999.63
2022-11-13T09:56:08.569Z,99983.50
2022-11-13T09:57:38.093Z,99977.69
2022-11-13T09:59:39.698Z,99984.50
2022-11-13T10:01:01.301Z,99985.78
2022-11-13T10:02:30.622Z,99974.00
2022-11-13T10:04:01.864Z,99982.97
2022-11-13T10:05:40.511Z,99987.13
2022-11-13T10:07:33.292Z,99978.72
2022-11-13T10:08:58.337Z,99976.06
2022-11-13T10:10:46.554Z,99977.97
2022-11-13T10:12:10.434Z,99980.19
2022-11-13T10:13:41.064Z,99985.78
2022-11-13T10:15:04.476Z,99989.66
2022-11-13T10:16:43.738Z,99980.81
2022-11-13T10:18:13.968Z,99982.63
2022-11-13T10:19:42.896Z,99973.09
2022-11-13T10:21:25.164Z,99977.03
2022-11-13T10:23:04.447Z,99976.47
2022-11-13T10:24:28.700Z,99979.28
2022-11-13T10:25:52.472Z,99966.63
2022-11-13T10:27:14.996Z,99968.78
2022-11-13T10:28:50.210Z,99971.25
2022-11-13T10:30:19.394Z,99962.09
2022-11-13T10:31:45.626Z,99965.56
2022-11-13T10:33:09.475Z,99960.84
2022-11-13T10:34:29.946Z,99955.41
2022-11-13T10:36:15.013Z,99955.09
2022-11-13T10:37:38.537Z,99949.88
2022-11-13T10:39:07.405Z,99949.47
2022-11-13T10:40:34.584Z,99947.34
2022-11-13T10:41:55.802Z,99951.22
2022-11-13T10:43:20.638Z,99946.22
2022-11-13T10:44:53.367Z,99934.00
2022-11-13T10:46:24.301Z,99937.94
2022-11-13T10:48:07.460Z,99929.13
2022-11-13T10:49:31.614Z,99933.31
2022-11-13T10:51:01.017Z,99933.06
2022-11-13T10:52:30.375Z,99933.47
2022-11-13T10:53:52.152Z,99934.25
2022-11-13T10:55:37.606Z,99931.69
2022-11-13T10:57:14.357Z,99927.03
2022-11-13T10:58:35.355Z,99922.44
2022-11-13T10:59:56.736Z,99926.41
2022-11-13T11:01:24.317Z,99918.28
2022-11-13T11:02:49.046Z,99915.97
2022-11-13T11:04:27.872Z,99912.47
2022-11-13T11:05:54.323Z,99915.97
2022-11-13T11:07:23.402Z,99907.50
2022-11-13T11:08:44.622Z,99910.72
2022-11-13T11:10:20.030Z,99907.53
2022-11-13T11:12:10.176Z,99900.59
2022-11-13T11:13:30.706Z,99897.44
2022-11-13T11:14:57.118Z,99893.38
2022-11-13T11:16:23.753Z,99885.53
2022-11-13T11:17:49.449Z,99893.41
2022-11-13T11:19:15.237Z,99887.69
2022-11-13T11:20:52.205Z,99896.06
2022-11-13T11:22:17.104Z,99868.66
2022-11-13T11:23:49.577Z,99869.63
2022-11-13T11:25:19.586Z,99884.66
2022-11-13T11:26:50.345Z,99874.34
2022-11-13T11:28:24.154Z,99876.88
2022-11-13T11:29:44.724Z,99873.03
2022-11-13T11:31:17.839Z,99876.75
2022-11-13T11:32:51.591Z,99862.25
2022-11-13T11:34:12.687Z,99859.41
2022-11-13T11:35:45.246Z,99855.97
2022-11-13T11:37:23.237Z,99837.72
2022-11-13T11:39:25.347Z,99836.44
2022-11-13T11:40:52.567Z,99834.91
2022-11-13T11:42:36.685Z,99836.56
2022-11-13T11:44:18.241Z,99838.44
2022-11-13T11:45:42.860Z,99842.31
2022-11-13T11:47:03.876Z,99828.44
2022-11-13T11:48:28.483Z,99829.50
2022-11-13T11:49:49.392Z,99834.94
2022-11-13T11:51:33.685Z,99822.75
2022-11-13T11:53:16.507Z,99821.91
2022-11-13T11:54:43.603Z,99816.25
2022-11-13T11:56:19.653Z,99806.34
2022-11-13T11:57:49.942Z,99808.91
2022-11-13T11:59:55.636Z,99800.41
2022-11-13T12:01:46.239Z,99792.75
2022-11-13T12:03:42.135Z,99794.97
2022-11-13T12:05:32.908Z,99798.56
2022-11-13T12:07:06.517Z,99791.03
2022-11-13T12:08:36.311Z,99787.47
2022-11-13T12:10:18.671Z,99780.75
2022-11-13T12:12:17.848Z,99774.72
2022-11-13T12:13:56.882Z,99773.91
2022-11-13T12:15:51.823Z,99763.47
2022-11-13T12:17:45.288Z,99770.31
2022-11-13T12:19:10.295Z,99771.50
2022-11-13T12:20:44.691Z,99769.03
2022-11-13T12:22:30.869Z,99763.75
2022-11-13T12:24:19.079Z,99763.91
2022-11-13T12:25:47.007Z,99771.16
2022-11-13T12:27:16.351Z,99759.34
2022-11-13T12:28:50.984Z,99747.50
2022-11-13T12:30:17.073Z,99749.91
2022-11-13T12:32:02.635Z,99752.22
2022-11-13T12:33:34.264Z,99747.31
2022-11-13T12:35:07.600Z,99748.94
2022-11-13T12:36:28.783Z,99741.88
2022-11-13T12:38:01.932Z,99741.28
2022-11-13T12:39:43.049Z,99740.50
2022-11-13T12:41:33.223Z,99733.19
2022-11-13T12:43:28.775Z,99731.66
2022-11-13T12:45:08.143Z,99734.22
2022-11-13T12:46:40.259Z,99731.34
2022-11-13T12:48:18.669Z,99725.63
2022-11-13T12:49:39.510Z,99725.16
2022-11-13T12:51:08.378Z,99729.94
2022-11-13T12:52:29.279Z,99727.78
2022-11-13T12:53:52.813Z,99726.22
2022-11-13T12:55:31.720Z,99718.00
2022-11-13T12:56:52.715Z,99719.50
2022-11-13T12:58:31.348Z,99722.63
2022-11-13T12:59:59.059Z,99713.88
2022-11-13T13:01:22.098Z,99712.63
2022-11-13T13:03:04.804Z,99711.69
2022-11-13T13:04:48.559Z,99712.56
2022-11-13T13:06:34.315Z,99709.09
2022-11-13T13:08:22.019Z,99708.63
2022-11-13T13:10:07.294Z,99702.31
2022-11-13T13:12:00.248Z,99699.66
2022-11-13T13:13:58.168Z,99687.75
2022-11-13T13:15:31.517Z,99686.56
2022-11-13T13:16:52.343Z,99673.09
2022-11-13T13:18:29.952Z,99672.47
2022-11-13T13:20:01.780Z,99673.09
2022-11-13T13:21:22.454Z,99669.13
2022-11-13T13:22:43.234Z,99666.56
2022-11-13T13:24:27.337Z,99669.13
2022-11-13T13:25:47.628Z,99657.69
2022-11-13T13:27:42.183Z,99662.09
2022-11-13T13:29:18.179Z,99657.69
2022-11-13T13:30:54.393Z,99647.38
2022-11-13T13:32:39.332Z,99643.94
2022-11-13T13:34:25.368Z,99648.22
2022-11-13T13:36:02.147Z,99650.13
2022-11-13T13:37:39.573Z,99640.09
2022-11-13T13:39:21.397Z,99645.16
2022-11-13T13:40:52.900Z,99644.53
2022-11-13T13:42:39.815Z,99640.28
2022-11-13T13:44:21.740Z,99634.28
2022-11-13T13:46:00.935Z,99625.09
2022-11-13T13:47:42.645Z,99638.84
2022-11-13T13:49:09.298Z,99630.78
2022-11-13T13:50:33.917Z,99627.72
2022-11-13T13:51:57.293Z,99625.75
2022-11-13T13:53:31.720Z,99629.63
2022-11-13T13:54:52.625Z,99621.63
2022-11-13T13:56:14.225Z,99619.84
2022-11-13T13:57:40.794Z,99626.91
2022-11-13T13:59:02.244Z,99625.25
2022-11-13T14:00:23.594Z,99625.09
2022-11-13T14:01:55.845Z,99618.88
2022-11-13T14:03:20.728Z,99618.31
2022-11-13T14:04:47.132Z,99625.47
2022-11-13T14:06:19.732Z,99616.31
2022-11-13T14:07:46.087Z,99623.22
2022-11-13T14:09:16.684Z,99618.72
2022-11-13T14:10:37.466Z,99632.53
2022-11-13T14:12:09.979Z,99611.31
2022-11-13T14:13:31.057Z,99611.66
2022-11-13T14:14:51.892Z,99615.88
2022-11-13T14:16:13.985Z,99607.63
2022-11-13T14:17:35.484Z,99604.13
2022-11-13T14:19:04.618Z,99609.28
2022-11-13T14:20:25.399Z,99605.72
2022-11-13T14:21:49.595Z,99601.50
2022-11-13T14:23:13.818Z,99601.50
2022-11-13T14:24:48.318Z,99602.25
2022-11-13T14:26:11.848Z,99609.00
2022-11-13T14:27:32.505Z,99604.38
2022-11-13T14:28:58.601Z,99602.47
2022-11-13T14:30:28.017Z,99598.97
2022-11-13T14:31:48.712Z,99600.84
2022-11-13T14:33:15.897Z,99600.06
2022-11-13T14:34:38.660Z,99601.09
2022-11-13T14:36:03.808Z,99596.44
2022-11-13T14:37:32.237Z,99586.38
2022-11-13T14:38:53.947Z,99585.94
2022-11-13T14:40:20.883Z,99584.28
2022-11-13T14:41:50.152Z,99579.25
2022-11-13T14:43:20.343Z,99582.75
2022-11-13T14:44:41.203Z,99569.91
2022-11-13T14:46:04.964Z,99588.06
2022-11-13T14:47:37.236Z,99583.47
2022-11-13T14:48:58.358Z,99589.88
2022-11-13T14:50:25.890Z,99578.44
2022-11-13T14:51:55.776Z,99572.91
2022-11-13T14:53:28.251Z,99582.81
2022-11-13T14:55:15.231Z,99584.63
2022-11-13T14:56:36.910Z,99587.56
2022-11-13T14:57:57.864Z,99586.66
2022-11-13T14:59:26.822Z,99579.63
2022-11-13T15:00:50.596Z,99580.91
2022-11-13T15:02:12.642Z,99564.84
2022-11-13T15:03:34.083Z,99569.00
2022-11-13T15:04:55.128Z,99573.63
2022-11-13T15:06:21.307Z,99572.19
2022-11-13T15:07:45.629Z,99555.06
2022-11-13T15:09:12.761Z,99579.09
2022-11-13T15:10:33.448Z,99581.72
2022-11-13T15:11:54.142Z,99577.38
2022-11-13T15:13:17.292Z,99581.16
2022-11-13T15:14:41.227Z,99585.53
2022-11-13T15:16:02.007Z,99581.31
2022-11-13T15:17:23.393Z,99582.56
2022-11-13T15:18:52.973Z,99580.31
2022-11-13T15:20:16.272Z,99571.66
2022-11-13T15:21:36.913Z,99577.19
2022-11-13T15:22:59.646Z,99575.66
2022-11-13T15:24:20.563Z,99585.38
2022-11-13T15:25:42.374Z,99576.81
2022-11-13T15:27:03.497Z,99585.63
2022-11-13T15:28:24.010Z,99581.38
2022-11-13T15:29:44.766Z,99579.13
2022-11-13T15:31:23.962Z,99574.19
2022-11-13T15:32:45.317Z,99569.09
2022-11-13T15:34:06.089Z,99568.41
2022-11-13T15:35:26.689Z,99563.75
2022-11-13T15:36:47.369Z,99567.34
2022-11-13T15:38:08.089Z,99563.06
2022-11-13T15:39:29.116Z,99568.72
2022-11-13T15:40:50.186Z,99572.41
2022-11-13T15:42:19.858Z,99574.25
2022-11-13T15:43:44.397Z,99563.31
2022-11-13T15:45:08.764Z,99559.78
2022-11-13T15:46:29.505Z,99555.91
2022-11-13T15:47:50.489Z,99563.13
2022-11-13T15:49:11.144Z,99564.00
2022-11-13T15:50:32.351Z,99570.56
2022-11-13T15:51:53.189Z,99571.75
2022-11-13T15:53:14.162Z,99584.22
2022-11-13T15:54:38.587Z,99582.50
2022-11-13T15:56:02.848Z,99576.38
2022-11-13T15:57:29.597Z,99580.19
2022-11-13T15:58:50.285Z,99586.47
2022-11-13T16:00:25.064Z,99588.59
2022-11-13T16:01:47.089Z,99590.50
2022-11-13T16:03:11.916Z,99584.00
2022-11-13T16:04:50.831Z,99579.41
2022-11-13T16:06:21.203Z,99586.75
2022-11-13T16:07:42.813Z,99584.47
2022-11-13T16:09:04.526Z,99573.03
2022-11-13T16:10:25.557Z,99564.34
2022-11-13T16:11:46.595Z,99567.09
2022-11-13T16:13:07.183Z,99562.84
2022-11-13T16:14:27.906Z,99568.91
2022-11-13T16:15:49.259Z,99575.63
2022-11-13T16:17:16.574Z,99578.50
2022-11-13T16:18:39.866Z,99576.72
2022-11-13T16:20:01.511Z,99573.28
2022-11-13T16:21:22.766Z,99577.56
2022-11-13T16:22:44.286Z,99584.56
2022-11-13T16:24:05.486Z,99575.44
2022-11-13T16:25:26.665Z,99586.78